createdAt,value
2022-12-07T00:03:18.378Z,10.90
2022-12-07T00:07:24.894Z,9.30
2022-12-07T00:11:29.433Z,9.80
2022-12-07T00:15:30.974Z,10.57
2022-12-07T00:19:32.962Z,10.38
2022-12-07T00:23:35.357Z,9.57
2022-12-07T00:27:36.917Z,10.43
2022-12-07T00:31:41.958Z,10.23
2022-12-07T00:35:43.636Z,10.65
2022-12-07T00:39:47.327Z,11.23
2022-12-07T00:43:50.292Z,11.77
2022-12-07T00:47:51.784Z,12.95
2022-12-07T00:51:53.434Z,11.00
2022-12-07T00:55:56.615Z,11.60
2022-12-07T00:59:59.256Z,12.23
2022-12-07T01:04:02.585Z,12.52
2022-12-07T01:08:05.090Z,12.23
2022-12-07T01:12:06.895Z,11.55
2022-12-07T01:16:09.512Z,11.00
2022-12-07T01:20:11.694Z,10.70
2022-12-07T01:24:13.204Z,9.80
2022-12-07T01:28:14.745Z,11.27
2022-12-07T01:32:16.463Z,12.30
2022-12-07T01:36:26.710Z,9.55
2022-12-07T01:40:28.201Z,12.10
2022-12-07T01:44:34.834Z,9.63
2022-12-07T01:48:41.097Z,10.17
2022-12-07T01:52:43.500Z,10.77
2022-12-07T01:56:53.360Z,10.82
2022-12-07T02:00:55.209Z,11.75
2022-12-07T02:04:57.107Z,12.40
2022-12-07T02:08:58.740Z,11.77
2022-12-07T02:13:11.713Z,12.38
2022-12-07T02:17:22.412Z,11.48
2022-12-07T02:21:36.601Z,14.68
2022-12-07T02:25:41.114Z,13.43
2022-12-07T02:29:47.047Z,11.57
2022-12-07T02:33:56.108Z,11.32
2022-12-07T02:38:09.946Z,10.98
2022-12-07T02:42:18.625Z,11.57
2022-12-07T02:46:24.304Z,11.88
2022-12-07T02:50:26.272Z,12.30
2022-12-07T02:54:27.768Z,12.70
2022-12-07T02:58:38.384Z,12.73
2022-12-07T03:02:50.468Z,12.55
2022-12-07T03:06:58.594Z,11.93
2022-12-07T03:11:06.434Z,11.27
2022-12-07T03:15:18.847Z,11.52
2022-12-07T03:19:22.375Z,10.00
2022-12-07T03:23:25.152Z,10.85
2022-12-07T03:27:31.708Z,9.80
2022-12-07T03:31:36.314Z,10.70
2022-12-07T03:35:45.396Z,9.60
2022-12-07T03:40:05.483Z,9.32
2022-12-07T03:44:11.521Z,9.98
2022-12-07T03:48:23.529Z,9.88
2022-12-07T03:52:25.205Z,10.88
2022-12-07T03:56:27.598Z,11.57
2022-12-07T04:00:29.813Z,11.18
2022-12-07T04:04:31.624Z,11.10
2022-12-07T04:08:33.368Z,10.13
2022-12-07T04:12:35.450Z,9.57
2022-12-07T04:16:42.694Z,10.30
2022-12-07T04:20:47.059Z,9.70
2022-12-07T04:24:48.603Z,10.25
2022-12-07T04:28:50.251Z,9.30
2022-12-07T04:32:51.907Z,8.75
2022-12-07T04:36:53.549Z,8.52
2022-12-07T04:40:55.358Z,9.50
2022-12-07T04:44:56.900Z,7.07
2022-12-07T04:48:58.763Z,8.07
2022-12-07T04:53:00.465Z,6.05
2022-12-07T04:57:02.071Z,4.38
2022-12-07T05:01:03.995Z,4.28
2022-12-07T05:05:06.063Z,5.10
2022-12-07T05:09:07.771Z,5.30
2022-12-07T05:13:09.644Z,6.22
2022-12-07T05:17:12.645Z,5.35
2022-12-07T05:21:14.753Z,5.53
2022-12-07T05:25:16.488Z,7.22
2022-12-07T05:29:18.559Z,6.72
2022-12-07T05:33:20.270Z,7.00
2022-12-07T05:37:22.012Z,6.90
2022-12-07T05:41:42.426Z,6.93
2022-12-07T05:45:44.126Z,11.82
2022-12-07T05:49:45.992Z,9.45
2022-12-07T05:53:47.783Z,8.65
2022-12-07T05:58:08.378Z,7.88
2022-12-07T06:02:12.519Z,5.85
2022-12-07T06:06:14.188Z,7.68
2022-12-07T06:10:15.948Z,7.30
2022-12-07T06:14:20.376Z,6.95
2022-12-07T06:18:22.117Z,6.43
2022-12-07T06:22:23.778Z,7.88
2022-12-07T06:26:25.302Z,8.27
2022-12-07T06:30:27.612Z,7.68
2022-12-07T06:34:29.288Z,8.95
2022-12-07T06:38:30.967Z,7.72
2022-12-07T06:42:32.604Z,8.32
2022-12-07T06:46:38.668Z,9.13
2022-12-07T06:50:40.278Z,7.40
2022-12-07T06:54:41.841Z,8.43
2022-12-07T06:58:43.434Z,8.80
2022-12-07T07:02:45.007Z,7.50
2022-12-07T07:06:47.110Z,7.28
2022-12-07T07:10:48.678Z,7.55
2022-12-07T07:14:50.451Z,7.95
2022-12-07T07:18:52.194Z,7.30
2022-12-07T07:22:58.816Z,7.50
2022-12-07T07:27:00.458Z,7.30
2022-12-07T07:31:02.237Z,9.25
2022-12-07T07:35:04.354Z,10.32
2022-12-07T07:39:06.129Z,8.90
2022-12-07T07:43:07.768Z,9.48
2022-12-07T07:47:09.392Z,8.55
2022-12-07T07:51:11.008Z,9.60
2022-12-07T07:55:12.945Z,9.32
2022-12-07T07:59:16.907Z,10.05
2022-12-07T08:03:18.563Z,9.50
2022-12-07T08:07:20.071Z,9.25
2022-12-07T08:11:21.656Z,9.02
2022-12-07T08:15:23.195Z,9.00
2022-12-07T08:19:24.808Z,9.75
2022-12-07T08:23:34.632Z,9.38
2022-12-07T08:27:41.244Z,9.25
2022-12-07T08:31:43.064Z,8.68
2022-12-07T08:35:44.709Z,9.60
2022-12-07T08:39:46.318Z,8.57
2022-12-07T08:43:47.850Z,8.82
2022-12-07T08:47:56.890Z,9.18
2022-12-07T08:51:58.434Z,8.02
2022-12-07T08:56:00.120Z,8.50
2022-12-07T09:00:02.232Z,7.43
2022-12-07T09:04:04.141Z,10.32
2022-12-07T09:08:06.059Z,7.22
2022-12-07T09:12:08.408Z,7.40
2022-12-07T09:16:10.107Z,8.23
2022-12-07T09:20:12.155Z,8.02
2022-12-07T09:24:15.023Z,7.38
2022-12-07T09:28:16.622Z,6.95
2022-12-07T09:32:18.418Z,4.95
2022-12-07T09:36:20.491Z,6.18
2022-12-07T09:40:23.502Z,6.43
2022-12-07T09:44:26.536Z,6.22
2022-12-07T09:48:32.655Z,5.60
2022-12-07T09:52:38.649Z,6.30
2022-12-07T09:56:41.121Z,5.32
2022-12-07T10:00:42.661Z,5.60
2022-12-07T10:04:44.665Z,5.95
2022-12-07T10:08:46.749Z,5.35
2022-12-07T10:13:03.252Z,4.65
2022-12-07T10:17:27.401Z,5.15
2022-12-07T10:21:30.304Z,6.05
2022-12-07T10:25:37.151Z,5.82
2022-12-07T10:29:39.856Z,5.10
2022-12-07T10:33:53.686Z,4.55
2022-12-07T10:37:57.237Z,5.00
2022-12-07T10:42:01.230Z,5.15
2022-12-07T10:46:15.068Z,5.20
2022-12-07T10:50:50.882Z,5.10
2022-12-07T10:55:05.105Z,4.65
2022-12-07T10:59:15.835Z,4.85
2022-12-07T11:03:23.515Z,5.32
2022-12-07T11:11:53.891Z,5.10
2022-12-07T11:16:10.213Z,5.65
2022-12-07T11:20:20.157Z,4.28
2022-12-07T11:24:45.332Z,4.53
2022-12-07T11:29:12.300Z,4.70
2022-12-07T11:33:29.370Z,4.15
2022-12-07T11:37:38.113Z,5.00
2022-12-07T11:41:42.567Z,4.40
2022-12-07T11:45:46.207Z,5.22
2022-12-07T11:50:08.662Z,4.72
2022-12-07T11:54:19.981Z,4.00
2022-12-07T11:58:27.218Z,3.97
2022-12-07T12:02:51.952Z,4.32
2022-12-07T12:06:54.118Z,5.05
2022-12-07T12:11:14.657Z,4.05
2022-12-07T12:15:44.015Z,3.67
2022-12-07T12:19:57.981Z,4.00
2022-12-07T12:24:10.149Z,4.00
2022-12-07T12:28:23.452Z,3.63
2022-12-07T12:32:41.070Z,3.97
2022-12-07T12:40:50.433Z,3.95
2022-12-07T12:45:23.415Z,4.13
2022-12-07T12:49:26.421Z,4.03
2022-12-07T12:53:28.621Z,3.75
2022-12-07T12:57:34.035Z,2.70
2022-12-07T13:01:47.829Z,2.83
2022-12-07T13:07:25.549Z,6.50
2022-12-07T13:12:19.398Z,6.00
2022-12-07T13:16:30.605Z,5.47
2022-12-07T13:25:47.478Z,3.97
2022-12-07T13:39:36.571Z,4.70
2022-12-07T13:44:14.952Z,5.57
2022-12-07T13:48:24.495Z,3.65
2022-12-07T13:52:57.720Z,3.05
2022-12-07T13:57:25.213Z,2.90
2022-12-07T14:01:40.364Z,2.95
2022-12-07T14:10:53.957Z,2.63
2022-12-07T14:15:22.023Z,3.00
2022-12-07T14:20:09.559Z,3.08
2022-12-07T14:24:28.028Z,3.30
2022-12-07T14:28:39.517Z,2.90
2022-12-07T14:32:44.375Z,3.63
2022-12-07T14:36:46.118Z,2.63
2022-12-07T14:40:47.808Z,6.53
2022-12-07T14:44:49.266Z,17.90
2022-12-07T14:53:38.950Z,4.60
2022-12-07T15:02:32.236Z,5.32
2022-12-07T15:06:48.678Z,8.10
2022-12-07T15:10:51.834Z,4.40
2022-12-07T15:15:04.676Z,3.05
2022-12-07T15:19:33.382Z,3.03
2022-12-07T15:24:00.428Z,7.22
2022-12-07T15:28:02.135Z,10.88
2022-12-07T15:32:06.192Z,7.82
2022-12-07T15:36:38.124Z,7.65
2022-12-07T15:40:47.251Z,4.47
2022-12-07T15:45:07.970Z,5.95
2022-12-07T15:49:21.808Z,6.47
2022-12-07T15:53:26.146Z,5.47
2022-12-07T16:08:18.674Z,7.05
2022-12-07T16:56:48.220Z,7.93
2022-12-07T17:06:48.350Z,7.28
2022-12-07T17:21:28.994Z,9.38
2022-12-07T17:37:18.116Z,8.73
2022-12-07T17:56:32.722Z,9.05
2022-12-07T18:00:51.787Z,11.30
2022-12-07T18:05:54.232Z,8.70
2022-12-07T18:15:19.431Z,9.73
2022-12-07T18:19:21.157Z,9.68
2022-12-07T18:23:23.016Z,9.70
2022-12-07T18:27:24.499Z,9.25
2022-12-07T18:31:26.187Z,8.38
2022-12-07T18:35:28.900Z,7.80
2022-12-07T18:39:34.069Z,7.95
2022-12-07T18:43:35.989Z,7.55
2022-12-07T18:47:37.509Z,9.00
2022-12-07T18:51:39.426Z,9.75
2022-12-07T18:55:40.990Z,10.70
2022-12-07T18:59:49.614Z,8.52
2022-12-07T19:03:51.998Z,12.50
2022-12-07T19:07:53.856Z,12.45
2022-12-07T19:11:56.496Z,11.30
2022-12-07T19:15:58.079Z,11.23
2022-12-07T19:19:59.850Z,9.68
2022-12-07T19:24:05.460Z,10.35
2022-12-07T19:28:07.245Z,9.65
2022-12-07T19:32:09.947Z,9.10
2022-12-07T19:36:11.883Z,9.65
2022-12-07T19:40:13.652Z,9.05
2022-12-07T19:44:17.601Z,8.25
2022-12-07T19:48:19.868Z,8.35
2022-12-07T19:52:21.472Z,8.98
2022-12-07T19:56:22.946Z,8.90
2022-12-07T20:00:24.611Z,9.25
2022-12-07T20:04:29.446Z,8.80
2022-12-07T20:08:31.296Z,10.70
2022-12-07T20:12:51.771Z,9.15
2022-12-07T20:16:54.687Z,8.40
2022-12-07T20:20:58.541Z,8.48
2022-12-07T20:25:00.121Z,8.65
2022-12-07T20:29:09.979Z,7.82
2022-12-07T20:33:13.642Z,7.65
2022-12-07T20:37:15.293Z,6.85
2022-12-07T20:41:35.516Z,7.03
2022-12-07T20:45:37.098Z,7.32
2022-12-07T20:49:38.693Z,7.93
2022-12-07T20:53:40.346Z,8.50
2022-12-07T20:57:42.514Z,8.32
2022-12-07T21:01:44.534Z,7.72
2022-12-07T21:05:50.681Z,6.95
2022-12-07T21:09:53.097Z,8.82
2022-12-07T21:13:54.849Z,9.02
2022-12-07T21:17:56.503Z,8.57
2022-12-07T21:21:58.178Z,9.15
2022-12-07T21:26:00.010Z,9.77
2022-12-07T21:30:01.503Z,9.55
2022-12-07T21:34:03.944Z,9.30
2022-12-07T21:38:05.860Z,8.77
2022-12-07T21:42:07.465Z,9.27
2022-12-07T21:46:09.202Z,8.93
2022-12-07T21:50:11.259Z,9.40
2022-12-07T21:54:12.936Z,8.82
2022-12-07T21:58:14.493Z,9.15
2022-12-07T22:02:16.707Z,8.32
2022-12-07T22:06:24.259Z,8.27
2022-12-07T22:14:48.577Z,7.55
2022-12-07T22:18:51.755Z,8.55
2022-12-07T22:22:53.366Z,8.15
2022-12-07T22:26:54.956Z,8.30
2022-12-07T22:31:10.781Z,8.68
2022-12-07T22:35:12.455Z,8.95
2022-12-07T22:39:14.096Z,8.10
2022-12-07T22:43:15.749Z,8.13
2022-12-07T22:47:18.145Z,9.02
2022-12-07T22:51:31.395Z,8.30
2022-12-07T22:55:32.984Z,8.23
2022-12-07T22:59:34.894Z,9.45
2022-12-07T23:03:36.451Z,10.48
2022-12-07T23:07:38.256Z,9.10
2022-12-07T23:12:00.600Z,8.52
2022-12-07T23:16:14.225Z,8.35
2022-12-07T23:20:15.979Z,8.52
2022-12-07T23:24:17.964Z,7.70
2022-12-07T23:28:20.044Z,8.30
2022-12-07T23:32:22.539Z,8.23
2022-12-07T23:36:26.145Z,9.30
2022-12-07T23:40:27.617Z,7.50
2022-12-07T23:44:29.807Z,7.47
2022-12-07T23:48:31.819Z,7.10
2022-12-07T23:52:33.294Z,6.60
2022-12-07T23:56:34.893Z,8.15
